createdAt,value
2024-01-30T00:00:16.000Z,272.96
2024-01-30T00:01:40.000Z,273.02
2024-01-30T00:03:44.000Z,272.96
2024-01-30T00:05:09.000Z,272.96
2024-01-30T00:07:12.000Z,272.96
2024-01-30T00:08:36.000Z,272.96
2024-01-30T00:10:40.000Z,272.9
2024-01-30T00:12:04.000Z,272.9
2024-01-30T00:14:08.000Z,272.9
2024-01-30T00:15:33.000Z,272.84
2024-01-30T00:17:36.000Z,272.9
2024-01-30T00:19:00.000Z,272.96
2024-01-30T00:21:05.000Z,273.02
2024-01-30T00:23:48.000Z,273.02
2024-01-30T00:25:12.000Z,273.02
2024-01-30T00:27:16.000Z,273.02
2024-01-30T00:28:40.000Z,273.09
2024-01-30T00:30:44.000Z,273.09
2024-01-30T00:32:08.000Z,273.09
2024-01-30T00:34:12.000Z,272.96
2024-01-30T00:35:36.000Z,272.96
2024-01-30T00:37:40.000Z,272.96
2024-01-30T00:39:04.000Z,273.02
2024-01-30T00:41:08.000Z,272.96
2024-01-30T00:42:32.000Z,273.02
2024-01-30T00:44:36.000Z,272.96
2024-01-30T00:46:00.000Z,273.02
2024-01-30T00:48:04.000Z,272.96
2024-01-30T00:49:28.000Z,272.9
2024-01-30T00:51:32.000Z,272.9
2024-01-30T00:52:56.000Z,272.9
2024-01-30T00:55:01.000Z,272.96
2024-01-30T00:56:25.000Z,272.96
2024-01-30T00:58:29.000Z,272.96
2024-01-30T01:01:12.000Z,272.9
2024-01-30T01:02:37.000Z,272.9
2024-01-30T01:04:40.000Z,272.96
2024-01-30T01:06:05.000Z,272.96
2024-01-30T01:08:08.000Z,272.96
2024-01-30T01:09:33.000Z,273.02
2024-01-30T01:11:36.000Z,273.02
2024-01-30T01:13:01.000Z,272.96
2024-01-30T01:15:05.000Z,272.96
2024-01-30T01:16:29.000Z,273.02
2024-01-30T01:18:33.000Z,273.09
2024-01-30T01:19:57.000Z,273.02
2024-01-30T01:22:01.000Z,272.96
2024-01-30T01:23:25.000Z,272.9
2024-01-30T01:25:29.000Z,272.9
2024-01-30T01:26:53.000Z,272.9
2024-01-30T01:28:57.000Z,273.02
2024-01-30T01:30:21.000Z,273.02
2024-01-30T01:32:25.000Z,273.02
2024-01-30T01:33:49.000Z,273.02
2024-01-30T01:35:53.000Z,272.96
2024-01-30T01:38:36.000Z,272.96
2024-01-30T01:40:01.000Z,272.96
2024-01-30T01:42:04.000Z,272.9
2024-01-30T01:43:29.000Z,272.84
2024-01-30T01:45:32.000Z,272.71
2024-01-30T01:46:57.000Z,272.65
2024-01-30T01:49:00.000Z,272.65
2024-01-30T01:50:25.000Z,272.65
2024-01-30T01:52:29.000Z,272.65
2024-01-30T01:53:54.000Z,272.71
2024-01-30T01:55:58.000Z,272.84
2024-01-30T01:57:22.000Z,272.84
2024-01-30T01:59:25.000Z,272.84
2024-01-30T02:00:50.000Z,272.84
2024-01-30T02:02:54.000Z,272.65
2024-01-30T02:04:18.000Z,272.52
2024-01-30T02:06:22.000Z,272.52
2024-01-30T02:07:46.000Z,272.46
2024-01-30T02:09:50.000Z,272.59
2024-01-30T02:11:14.000Z,272.52
2024-01-30T02:13:18.000Z,272.46
2024-01-30T02:16:02.000Z,272.4
2024-01-30T02:17:26.000Z,272.34
2024-01-30T02:19:30.000Z,272.34
2024-01-30T02:20:54.000Z,272.46
2024-01-30T02:22:58.000Z,272.52
2024-01-30T02:24:22.000Z,272.59
2024-01-30T02:26:26.000Z,272.59
2024-01-30T02:27:50.000Z,272.59
2024-01-30T02:29:54.000Z,272.52
2024-01-30T02:31:18.000Z,272.46
2024-01-30T02:33:22.000Z,272.4
2024-01-30T02:34:47.000Z,272.4
2024-01-30T02:36:51.000Z,272.4
2024-01-30T02:38:15.000Z,272.4
2024-01-30T02:40:19.000Z,272.46
2024-01-30T02:41:43.000Z,272.59
2024-01-30T02:43:48.000Z,272.65
2024-01-30T02:45:12.000Z,272.77
2024-01-30T02:47:16.000Z,272.71
2024-01-30T02:48:40.000Z,272.71
2024-01-30T02:50:44.000Z,272.77
2024-01-30T02:53:27.000Z,272.65
2024-01-30T02:54:52.000Z,272.65
2024-01-30T02:56:55.000Z,272.52
2024-01-30T02:58:20.000Z,272.46
2024-01-30T03:00:23.000Z,272.4
2024-01-30T03:01:48.000Z,272.4
2024-01-30T03:03:52.000Z,272.34
2024-01-30T03:05:16.000Z,272.34
2024-01-30T03:07:20.000Z,272.27
2024-01-30T03:08:44.000Z,272.21
2024-01-30T03:10:48.000Z,272.21
2024-01-30T03:12:12.000Z,272.21
2024-01-30T03:14:16.000Z,272.21
2024-01-30T03:15:40.000Z,272.21
2024-01-30T03:17:44.000Z,272.27
2024-01-30T03:19:08.000Z,272.21
2024-01-30T03:21:12.000Z,272.21
2024-01-30T03:22:36.000Z,272.27
2024-01-30T03:24:40.000Z,272.21
2024-01-30T03:26:04.000Z,272.27
2024-01-30T03:28:08.000Z,272.27
2024-01-30T03:30:51.000Z,272.21
2024-01-30T03:32:16.000Z,272.21
2024-01-30T03:34:19.000Z,272.21
2024-01-30T03:35:44.000Z,272.21
2024-01-30T03:37:48.000Z,272.21
2024-01-30T03:39:12.000Z,272.21
2024-01-30T03:41:16.000Z,272.21
2024-01-30T03:42:40.000Z,272.21
2024-01-30T03:44:44.000Z,272.21
2024-01-30T03:46:08.000Z,272.15
2024-01-30T03:48:12.000Z,272.15
2024-01-30T03:49:36.000Z,272.21
2024-01-30T03:51:41.000Z,272.21
2024-01-30T03:53:05.000Z,272.21
2024-01-30T03:55:09.000Z,272.15
2024-01-30T03:56:33.000Z,272.15
2024-01-30T03:58:37.000Z,272.09
2024-01-30T04:00:01.000Z,272.09
2024-01-30T04:03:39.000Z,272.02
2024-01-30T04:04:13.000Z,272.02
2024-01-30T04:05:38.000Z,271.96
2024-01-30T04:07:41.000Z,272.02
2024-01-30T04:10:18.000Z,271.96
2024-01-30T04:11:43.000Z,272.02
2024-01-30T04:13:46.000Z,271.96
2024-01-30T04:15:11.000Z,272.02
2024-01-30T04:17:15.000Z,272.09
2024-01-30T04:18:39.000Z,272.09
2024-01-30T04:20:43.000Z,272.09
2024-01-30T04:22:07.000Z,272.09
2024-01-30T04:24:11.000Z,272.02
2024-01-30T04:25:35.000Z,271.96
2024-01-30T04:27:39.000Z,271.96
2024-01-30T04:29:03.000Z,271.96
2024-01-30T04:31:07.000Z,272.02
2024-01-30T04:32:31.000Z,272.09
2024-01-30T04:34:35.000Z,271.96
2024-01-30T04:35:59.000Z,271.96
2024-01-30T04:38:03.000Z,271.9
2024-01-30T04:39:27.000Z,271.9
2024-01-30T04:41:31.000Z,271.9
2024-01-30T04:42:55.000Z,271.9
2024-01-30T04:44:58.000Z,271.9
2024-01-30T04:47:42.000Z,271.9
2024-01-30T04:49:06.000Z,271.96
2024-01-30T04:51:10.000Z,271.9
2024-01-30T04:52:34.000Z,271.9
2024-01-30T04:54:38.000Z,271.9
2024-01-30T04:56:02.000Z,271.84
2024-01-30T04:58:06.000Z,271.84
2024-01-30T04:59:30.000Z,271.77
2024-01-30T05:01:34.000Z,271.84
2024-01-30T05:02:59.000Z,271.84
2024-01-30T05:05:02.000Z,271.9
2024-01-30T05:06:27.000Z,271.9
2024-01-30T05:08:31.000Z,271.9
2024-01-30T05:09:55.000Z,271.9
2024-01-30T05:12:02.000Z,271.9
2024-01-30T05:13:27.000Z,271.84
2024-01-30T05:15:30.000Z,271.84
2024-01-30T05:16:55.000Z,271.84
2024-01-30T05:18:59.000Z,271.77
2024-01-30T05:20:27.000Z,271.71
2024-01-30T05:22:30.000Z,271.71
2024-01-30T05:25:14.000Z,271.77
2024-01-30T05:26:38.000Z,271.71
2024-01-30T05:28:42.000Z,271.77
2024-01-30T05:30:06.000Z,271.77
2024-01-30T05:32:10.000Z,271.77
2024-01-30T05:33:34.000Z,271.77
2024-01-30T05:35:38.000Z,271.77
2024-01-30T05:37:02.000Z,271.77
2024-01-30T05:39:06.000Z,271.71
2024-01-30T05:40:33.000Z,271.71
2024-01-30T05:42:36.000Z,271.65
2024-01-30T05:44:01.000Z,271.71
2024-01-30T05:46:04.000Z,271.71
2024-01-30T05:47:29.000Z,271.71
2024-01-30T05:49:32.000Z,271.71
2024-01-30T05:50:57.000Z,271.77
2024-01-30T05:53:01.000Z,271.77
2024-01-30T05:54:25.000Z,271.77
2024-01-30T05:56:29.000Z,271.71
2024-01-30T05:57:53.000Z,271.71
2024-01-30T05:59:57.000Z,271.71
2024-01-30T06:02:40.000Z,271.65
2024-01-30T06:04:05.000Z,271.65
2024-01-30T06:06:08.000Z,271.77
2024-01-30T06:07:33.000Z,271.84
2024-01-30T06:09:40.000Z,271.77
2024-01-30T06:11:04.000Z,271.84
2024-01-30T06:13:08.000Z,271.84
2024-01-30T06:14:32.000Z,271.84
2024-01-30T06:16:36.000Z,271.84
2024-01-30T06:18:00.000Z,271.77
2024-01-30T06:20:04.000Z,271.77
2024-01-30T06:21:29.000Z,271.77
2024-01-30T06:23:32.000Z,271.71
2024-01-30T06:24:57.000Z,271.71
2024-01-30T06:27:00.000Z,271.77
2024-01-30T06:28:25.000Z,271.77
2024-01-30T06:30:28.000Z,271.84
2024-01-30T06:31:53.000Z,271.77
2024-01-30T06:33:56.000Z,271.84
2024-01-30T06:35:21.000Z,271.84
2024-01-30T06:37:24.000Z,271.84
2024-01-30T06:40:08.000Z,271.9
2024-01-30T06:41:32.000Z,271.9
2024-01-30T06:43:36.000Z,271.9
2024-01-30T06:45:01.000Z,271.96
2024-01-30T06:47:04.000Z,271.9
2024-01-30T06:48:29.000Z,271.96
2024-01-30T06:50:33.000Z,271.9
2024-01-30T06:51:58.000Z,271.9
2024-01-30T06:54:02.000Z,271.9
2024-01-30T06:55:26.000Z,271.96
2024-01-30T06:57:30.000Z,272.09
2024-01-30T06:58:54.000Z,272.02
2024-01-30T07:00:58.000Z,272.02
2024-01-30T07:02:22.000Z,272.09
2024-01-30T07:04:27.000Z,272.09
2024-01-30T07:05:51.000Z,272.15
2024-01-30T07:07:55.000Z,272.09
2024-01-30T07:09:20.000Z,272.15
2024-01-30T07:11:23.000Z,272.15
2024-01-30T07:12:48.000Z,272.21
2024-01-30T07:14:51.000Z,272.21
2024-01-30T07:17:34.000Z,272.27
2024-01-30T07:18:59.000Z,272.34
2024-01-30T07:21:03.000Z,272.27
2024-01-30T07:22:27.000Z,272.34
2024-01-30T07:24:31.000Z,272.4
2024-01-30T07:25:56.000Z,272.4
2024-01-30T07:27:59.000Z,272.4
2024-01-30T07:29:24.000Z,272.52
2024-01-30T07:31:27.000Z,272.59
2024-01-30T07:32:56.000Z,272.59
2024-01-30T07:34:59.000Z,272.71
2024-01-30T07:36:33.000Z,272.65
2024-01-30T07:38:36.000Z,272.71
2024-01-30T07:40:00.000Z,272.65
2024-01-30T07:42:04.000Z,272.77
2024-01-30T07:43:32.000Z,272.71
2024-01-30T07:45:35.000Z,272.77
2024-01-30T07:47:00.000Z,272.84
2024-01-30T07:49:03.000Z,272.84
2024-01-30T07:50:28.000Z,272.96
2024-01-30T07:52:32.000Z,272.96
2024-01-30T07:55:16.000Z,272.96
2024-01-30T07:56:40.000Z,272.96
2024-01-30T07:58:43.000Z,272.9
2024-01-30T08:00:08.000Z,272.96
2024-01-30T08:02:12.000Z,272.9
2024-01-30T08:03:36.000Z,272.96
2024-01-30T08:05:40.000Z,273.02
2024-01-30T08:07:04.000Z,273.09
2024-01-30T08:09:08.000Z,273.09
2024-01-30T08:10:33.000Z,273.15
2024-01-30T08:12:36.000Z,273.15
2024-01-30T08:14:01.000Z,273.21
2024-01-30T08:16:04.000Z,273.21
2024-01-30T08:17:29.000Z,273.34
2024-01-30T08:19:33.000Z,273.4
2024-01-30T08:20:57.000Z,273.4
2024-01-30T08:23:01.000Z,273.4
2024-01-30T08:24:26.000Z,273.4
2024-01-30T08:26:32.000Z,273.4
2024-01-30T08:27:58.000Z,273.4
2024-01-30T08:30:05.000Z,273.4
2024-01-30T08:32:50.000Z,273.46
2024-01-30T08:34:17.000Z,273.65
2024-01-30T08:36:23.000Z,273.65
2024-01-30T08:37:50.000Z,273.77
2024-01-30T08:39:56.000Z,273.9
2024-01-30T08:41:22.000Z,273.84
2024-01-30T08:43:28.000Z,273.9
2024-01-30T08:44:55.000Z,273.9
2024-01-30T08:47:01.000Z,273.96
2024-01-30T08:48:28.000Z,274.02
2024-01-30T08:50:34.000Z,274.02
2024-01-30T08:52:01.000Z,274.09
2024-01-30T08:54:07.000Z,274.21
2024-01-30T08:55:34.000Z,274.21
2024-01-30T08:57:40.000Z,274.4
2024-01-30T08:59:07.000Z,274.4
2024-01-30T09:01:14.000Z,274.4
2024-01-30T09:02:41.000Z,274.46
2024-01-30T09:04:47.000Z,274.65
2024-01-30T09:06:14.000Z,274.65
2024-01-30T09:08:20.000Z,274.71
2024-01-30T09:11:07.000Z,274.71
2024-01-30T09:12:33.000Z,274.59
2024-01-30T09:14:39.000Z,274.84
2024-01-30T09:16:06.000Z,274.77
2024-01-30T09:18:12.000Z,274.84
2024-01-30T09:19:38.000Z,274.84
2024-01-30T09:21:45.000Z,275.02
2024-01-30T09:23:11.000Z,274.96
2024-01-30T09:25:18.000Z,274.84
2024-01-30T09:26:44.000Z,274.84
2024-01-30T09:28:50.000Z,275.15
2024-01-30T09:30:17.000Z,275.15
2024-01-30T09:32:23.000Z,275.09
2024-01-30T09:33:49.000Z,275.02
2024-01-30T09:35:56.000Z,275.09
2024-01-30T09:37:22.000Z,275.15
2024-01-30T09:39:33.000Z,275.27
2024-01-30T09:41:00.000Z,275.52
2024-01-30T09:43:06.000Z,275.71
2024-01-30T09:44:32.000Z,275.71
2024-01-30T09:46:38.000Z,275.4
2024-01-30T09:49:23.000Z,275.21
2024-01-30T09:50:50.000Z,275.27
2024-01-30T09:52:56.000Z,275.52
2024-01-30T09:54:23.000Z,275.96
2024-01-30T09:56:29.000Z,275.9
2024-01-30T09:57:56.000Z,275.71
2024-01-30T10:00:02.000Z,276.02
2024-01-30T10:01:28.000Z,276.27
2024-01-30T10:03:35.000Z,276.9
2024-01-30T10:05:01.000Z,276.96
2024-01-30T10:07:07.000Z,276.71
2024-01-30T10:08:34.000Z,276.84
2024-01-30T10:10:40.000Z,276.71
2024-01-30T10:12:07.000Z,276.65
2024-01-30T10:14:13.000Z,276.71
2024-01-30T10:15:40.000Z,276.59
2024-01-30T10:17:46.000Z,276.59
2024-01-30T10:19:13.000Z,276.52
2024-01-30T10:21:19.000Z,276.59
2024-01-30T10:22:45.000Z,276.52
2024-01-30T10:24:51.000Z,276.4
2024-01-30T10:27:37.000Z,276.4
2024-01-30T10:29:03.000Z,276.46
2024-01-30T10:31:10.000Z,276.46
2024-01-30T10:32:36.000Z,276.52
2024-01-30T10:34:43.000Z,276.65
2024-01-30T10:36:09.000Z,276.65
2024-01-30T10:38:16.000Z,276.65
2024-01-30T10:39:42.000Z,276.77
2024-01-30T10:41:49.000Z,277.02
2024-01-30T10:43:15.000Z,277.34
2024-01-30T10:45:22.000Z,277.34
2024-01-30T10:46:48.000Z,277.9
2024-01-30T10:48:55.000Z,278.09
2024-01-30T10:50:21.000Z,278.15
2024-01-30T10:52:28.000Z,278.09
2024-01-30T10:53:55.000Z,278.15
2024-01-30T10:56:01.000Z,278.65
2024-01-30T10:57:28.000Z,278.27
2024-01-30T10:59:35.000Z,278.34
2024-01-30T11:01:01.000Z,278.71
2024-01-30T11:03:07.000Z,278.84
2024-01-30T11:05:53.000Z,278.77
2024-01-30T11:07:19.000Z,278.71
2024-01-30T11:09:26.000Z,278.65
2024-01-30T11:10:52.000Z,278.65
2024-01-30T11:12:59.000Z,278.77
2024-01-30T11:14:25.000Z,278.65
2024-01-30T11:16:32.000Z,278.65
2024-01-30T11:17:58.000Z,278.96
2024-01-30T11:20:06.000Z,279.09
2024-01-30T11:21:32.000Z,278.96
2024-01-30T11:23:38.000Z,278.84
2024-01-30T11:25:05.000Z,278.84
2024-01-30T11:27:11.000Z,279.09
2024-01-30T11:28:38.000Z,279.09
2024-01-30T11:30:44.000Z,279.15
2024-01-30T11:32:11.000Z,279.09
2024-01-30T11:34:17.000Z,278.9
2024-01-30T11:35:43.000Z,279.15
2024-01-30T11:37:50.000Z,279.09
2024-01-30T11:39:17.000Z,279.02
2024-01-30T11:41:23.000Z,278.84
2024-01-30T11:44:08.000Z,278.96
2024-01-30T11:45:35.000Z,278.96
2024-01-30T11:47:41.000Z,278.9
2024-01-30T11:49:10.000Z,279.21
2024-01-30T11:51:18.000Z,279.46
2024-01-30T11:52:44.000Z,279.34
2024-01-30T11:54:51.000Z,279.27
2024-01-30T11:56:18.000Z,279.21
2024-01-30T11:58:24.000Z,279.15
2024-01-30T11:59:51.000Z,279.21
2024-01-30T12:01:57.000Z,279.15
2024-01-30T12:03:23.000Z,279.21
2024-01-30T12:05:29.000Z,279.65
2024-01-30T12:06:56.000Z,280.02
2024-01-30T12:09:03.000Z,279.77
2024-01-30T12:10:29.000Z,279.71
2024-01-30T12:12:36.000Z,279.84
2024-01-30T12:14:02.000Z,279.77
2024-01-30T12:16:09.000Z,279.84
2024-01-30T12:17:35.000Z,279.77
2024-01-30T12:19:41.000Z,279.9
2024-01-30T12:22:27.000Z,279.77
2024-01-30T12:23:54.000Z,279.77
2024-01-30T12:26:00.000Z,279.84
2024-01-30T12:27:26.000Z,279.9
2024-01-30T12:29:33.000Z,279.84
2024-01-30T12:31:04.000Z,279.84
2024-01-30T12:33:10.000Z,280.09
2024-01-30T12:34:37.000Z,280.02
2024-01-30T12:36:59.000Z,280.02
2024-01-30T12:38:26.000Z,280.15
2024-01-30T12:40:34.000Z,280.15
2024-01-30T12:42:00.000Z,280.15
2024-01-30T12:44:06.000Z,280.09
2024-01-30T12:45:33.000Z,280.09
2024-01-30T12:47:39.000Z,280.09
2024-01-30T12:49:06.000Z,280.34
2024-01-30T12:51:13.000Z,280.4
2024-01-30T12:52:39.000Z,280.46
2024-01-30T12:54:46.000Z,280.4
2024-01-30T12:56:12.000Z,280.27
2024-01-30T12:58:18.000Z,280.15
2024-01-30T13:01:04.000Z,280.09
2024-01-30T13:02:32.000Z,280.15
2024-01-30T13:04:38.000Z,280.27
2024-01-30T13:06:05.000Z,280.27
2024-01-30T13:08:11.000Z,280.27
2024-01-30T13:09:37.000Z,280.27
2024-01-30T13:11:43.000Z,280.21
2024-01-30T13:13:10.000Z,280.21
2024-01-30T13:15:25.000Z,280.34
2024-01-30T13:16:52.000Z,280.4
2024-01-30T13:18:58.000Z,280.34
2024-01-30T13:20:25.000Z,280.27
2024-01-30T13:22:31.000Z,280.27
2024-01-30T13:23:58.000Z,280.4
2024-01-30T13:26:04.000Z,280.34
2024-01-30T13:27:30.000Z,280.34
2024-01-30T13:29:36.000Z,280.46
2024-01-30T13:31:03.000Z,280.4
2024-01-30T13:33:09.000Z,280.46
2024-01-30T13:34:36.000Z,280.4
2024-01-30T13:36:42.000Z,280.4
2024-01-30T13:40:56.000Z,280.65
2024-01-30T13:43:02.000Z,280.65
2024-01-30T13:44:29.000Z,280.65
2024-01-30T13:46:35.000Z,280.77
2024-01-30T13:48:02.000Z,280.65
2024-01-30T13:50:08.000Z,280.71
2024-01-30T13:51:35.000Z,280.71
2024-01-30T13:53:41.000Z,280.77
2024-01-30T13:55:08.000Z,280.71
2024-01-30T13:57:14.000Z,280.71
2024-01-30T13:58:41.000Z,280.65
2024-01-30T14:00:47.000Z,280.77
2024-01-30T14:02:14.000Z,280.84
2024-01-30T14:04:20.000Z,280.77
2024-01-30T14:05:47.000Z,280.71
2024-01-30T14:07:53.000Z,280.77
2024-01-30T14:09:20.000Z,280.84
2024-01-30T14:11:26.000Z,281.02
2024-01-30T14:12:52.000Z,281.15
2024-01-30T14:14:59.000Z,281.21
2024-01-30T14:17:45.000Z,281.27
2024-01-30T14:19:11.000Z,281.4
2024-01-30T14:21:18.000Z,281.34
2024-01-30T14:22:44.000Z,281.34
2024-01-30T14:24:51.000Z,281.27
2024-01-30T14:26:17.000Z,281.27
2024-01-30T14:28:23.000Z,281.34
2024-01-30T14:29:50.000Z,281.27
2024-01-30T14:31:56.000Z,281.34
2024-01-30T14:33:22.000Z,281.27
2024-01-30T14:35:29.000Z,281.21
2024-01-30T14:36:55.000Z,281.27
2024-01-30T14:39:02.000Z,281.15
2024-01-30T14:40:28.000Z,281.02
2024-01-30T14:42:34.000Z,280.96
2024-01-30T14:44:01.000Z,280.9
2024-01-30T14:46:08.000Z,280.84
2024-01-30T14:47:34.000Z,280.84
2024-01-30T14:49:41.000Z,280.71
2024-01-30T14:51:07.000Z,280.77
2024-01-30T14:53:14.000Z,280.71
2024-01-30T14:55:59.000Z,280.71
2024-01-30T14:57:25.000Z,280.84
2024-01-30T14:59:33.000Z,280.9
2024-01-30T15:00:59.000Z,280.96
2024-01-30T15:03:06.000Z,281.09
2024-01-30T15:04:32.000Z,281.02
2024-01-30T15:06:39.000Z,280.9
2024-01-30T15:08:05.000Z,280.77
2024-01-30T15:10:11.000Z,280.77
2024-01-30T15:11:38.000Z,280.77
2024-01-30T15:13:44.000Z,280.71
2024-01-30T15:15:11.000Z,280.65
2024-01-30T15:17:18.000Z,280.59
2024-01-30T15:18:44.000Z,280.65
2024-01-30T15:20:50.000Z,280.65
2024-01-30T15:22:17.000Z,280.52
2024-01-30T15:24:23.000Z,280.59
2024-01-30T15:25:50.000Z,280.65
2024-01-30T15:27:56.000Z,280.52
2024-01-30T15:29:23.000Z,280.52
2024-01-30T15:31:29.000Z,280.46
2024-01-30T15:34:15.000Z,280.4
2024-01-30T15:35:41.000Z,280.4
2024-01-30T15:37:47.000Z,280.46
2024-01-30T15:39:14.000Z,280.46
2024-01-30T15:41:20.000Z,280.46
2024-01-30T15:42:47.000Z,280.59
2024-01-30T15:44:53.000Z,280.52
2024-01-30T15:46:19.000Z,280.52
2024-01-30T15:48:26.000Z,280.59
2024-01-30T15:49:52.000Z,280.65
2024-01-30T15:51:59.000Z,280.71
2024-01-30T15:53:25.000Z,280.59
2024-01-30T15:55:32.000Z,280.52
2024-01-30T15:56:58.000Z,280.46
2024-01-30T15:59:05.000Z,280.59
2024-01-30T16:00:32.000Z,280.71
2024-01-30T16:02:38.000Z,280.77
2024-01-30T16:04:05.000Z,280.71
2024-01-30T16:06:11.000Z,280.77
2024-01-30T16:07:37.000Z,280.71
2024-01-30T16:09:44.000Z,280.71
2024-01-30T16:12:29.000Z,280.59
2024-01-30T16:13:55.000Z,280.65
2024-01-30T16:16:01.000Z,280.77
2024-01-30T16:17:28.000Z,280.77
2024-01-30T16:19:35.000Z,280.65
2024-01-30T16:21:01.000Z,280.52
2024-01-30T16:23:08.000Z,280.46
2024-01-30T16:24:35.000Z,280.46
2024-01-30T16:26:41.000Z,280.46
2024-01-30T16:28:08.000Z,280.52
2024-01-30T16:30:14.000Z,280.52
2024-01-30T16:31:40.000Z,280.46
2024-01-30T16:33:46.000Z,280.46
2024-01-30T16:35:13.000Z,280.52
2024-01-30T16:37:19.000Z,280.4
2024-01-30T16:38:46.000Z,280.27
2024-01-30T16:40:52.000Z,280.21
2024-01-30T16:42:18.000Z,280.21
2024-01-30T16:44:25.000Z,280.21
2024-01-30T16:45:51.000Z,280.21
2024-01-30T16:47:57.000Z,280.15
2024-01-30T16:50:43.000Z,280.4
2024-01-30T16:52:09.000Z,280.4
2024-01-30T16:54:16.000Z,280.27
2024-01-30T16:55:42.000Z,280.21
2024-01-30T16:57:49.000Z,280.15
2024-01-30T16:59:16.000Z,280.21
2024-01-30T17:01:22.000Z,280.21
2024-01-30T17:02:49.000Z,280.15
2024-01-30T17:04:55.000Z,280.21
2024-01-30T17:06:28.000Z,280.21
2024-01-30T17:08:34.000Z,280.21
2024-01-30T17:10:01.000Z,280.27
2024-01-30T17:12:07.000Z,280.15
2024-01-30T17:13:34.000Z,280.27
2024-01-30T17:15:40.000Z,280.21
2024-01-30T17:17:06.000Z,280.21
2024-01-30T17:19:19.000Z,280.21
2024-01-30T17:20:46.000Z,280.15
2024-01-30T17:22:52.000Z,280.21
2024-01-30T17:24:19.000Z,280.15
2024-01-30T17:26:31.000Z,280.27
2024-01-30T17:29:17.000Z,280.21
2024-01-30T17:30:44.000Z,280.21
2024-01-30T17:32:50.000Z,280.21
2024-01-30T17:34:17.000Z,280.21
2024-01-30T17:36:24.000Z,280.15
2024-01-30T17:37:50.000Z,280.15
2024-01-30T17:39:56.000Z,280.15
2024-01-30T17:41:23.000Z,280.09
2024-01-30T17:43:29.000Z,280.21
2024-01-30T17:44:55.000Z,280.21
2024-01-30T17:47:02.000Z,280.21
2024-01-30T17:48:28.000Z,280.27
2024-01-30T17:50:34.000Z,280.27
2024-01-30T17:52:01.000Z,280.34
2024-01-30T17:54:08.000Z,280.46
2024-01-30T17:55:34.000Z,280.46
2024-01-30T17:57:40.000Z,280.4
2024-01-30T17:59:07.000Z,280.4
2024-01-30T18:01:13.000Z,280.4
2024-01-30T18:02:40.000Z,280.4
2024-01-30T18:04:46.000Z,280.4
2024-01-30T18:07:31.000Z,280.4
2024-01-30T18:08:58.000Z,280.46
2024-01-30T18:11:04.000Z,280.46
2024-01-30T18:12:31.000Z,280.46
2024-01-30T18:14:37.000Z,280.46
2024-01-30T18:16:03.000Z,280.46
2024-01-30T18:18:10.000Z,280.46
2024-01-30T18:19:36.000Z,280.46
2024-01-30T18:21:43.000Z,280.59
2024-01-30T18:23:09.000Z,280.59
2024-01-30T18:25:17.000Z,280.59
2024-01-30T18:26:43.000Z,280.59
2024-01-30T18:28:49.000Z,280.52
2024-01-30T18:30:16.000Z,280.46
2024-01-30T18:32:22.000Z,280.52
2024-01-30T18:33:49.000Z,280.52
2024-01-30T18:35:56.000Z,280.52
2024-01-30T18:37:22.000Z,280.46
2024-01-30T18:39:29.000Z,280.4
2024-01-30T18:40:55.000Z,280.4
2024-01-30T18:43:01.000Z,280.4
2024-01-30T18:45:47.000Z,280.4
2024-01-30T18:47:14.000Z,280.34
2024-01-30T18:49:20.000Z,280.27
2024-01-30T18:50:46.000Z,280.27
2024-01-30T18:52:52.000Z,280.27
2024-01-30T18:54:19.000Z,280.27
2024-01-30T18:56:27.000Z,280.21
2024-01-30T18:57:53.000Z,280.27
2024-01-30T19:00:00.000Z,280.34
2024-01-30T19:01:26.000Z,280.4
2024-01-30T19:03:32.000Z,280.4
2024-01-30T19:04:59.000Z,280.4
2024-01-30T19:07:06.000Z,280.34
2024-01-30T19:08:32.000Z,280.27
2024-01-30T19:10:38.000Z,280.4
2024-01-30T19:12:10.000Z,280.4
2024-01-30T19:14:16.000Z,280.4
2024-01-30T19:15:42.000Z,280.52
2024-01-30T19:17:49.000Z,280.52
2024-01-30T19:19:15.000Z,280.46
2024-01-30T19:21:21.000Z,280.4
2024-01-30T19:24:07.000Z,280.46
2024-01-30T19:25:33.000Z,280.46
2024-01-30T19:27:44.000Z,280.46
2024-01-30T19:29:11.000Z,280.52
2024-01-30T19:31:18.000Z,280.65
2024-01-30T19:32:45.000Z,280.59
2024-01-30T19:34:51.000Z,280.59
2024-01-30T19:36:18.000Z,280.65
2024-01-30T19:38:24.000Z,280.71
2024-01-30T19:39:51.000Z,280.71
2024-01-30T19:41:57.000Z,280.77
2024-01-30T19:43:24.000Z,280.77
2024-01-30T19:45:30.000Z,280.65
2024-01-30T19:46:57.000Z,280.59
2024-01-30T19:49:03.000Z,280.59
2024-01-30T19:50:30.000Z,280.65
2024-01-30T19:52:37.000Z,280.77
2024-01-30T19:54:03.000Z,280.84
2024-01-30T19:56:09.000Z,280.77
2024-01-30T19:57:36.000Z,280.71
2024-01-30T19:59:42.000Z,280.65
2024-01-30T20:02:27.000Z,280.52
2024-01-30T20:03:54.000Z,280.52
2024-01-30T20:06:00.000Z,280.52
2024-01-30T20:07:27.000Z,280.59
2024-01-30T20:09:33.000Z,280.59
2024-01-30T20:11:00.000Z,280.59
2024-01-30T20:13:06.000Z,280.52
2024-01-30T20:14:33.000Z,280.46
2024-01-30T20:16:39.000Z,280.4
2024-01-30T20:18:06.000Z,280.46
2024-01-30T20:20:12.000Z,280.46
2024-01-30T20:21:39.000Z,280.46
2024-01-30T20:23:45.000Z,280.46
2024-01-30T20:25:11.000Z,280.4
2024-01-30T20:28:58.000Z,280.34
2024-01-30T20:30:49.000Z,280.4
2024-01-30T20:32:16.000Z,280.4
2024-01-30T20:34:22.000Z,280.4
2024-01-30T20:35:48.000Z,280.4
2024-01-30T20:37:55.000Z,280.4
2024-01-30T20:39:21.000Z,280.4
2024-01-30T20:41:27.000Z,280.4
2024-01-30T20:42:54.000Z,280.46
2024-01-30T20:45:00.000Z,280.52
2024-01-30T20:46:27.000Z,280.52
2024-01-30T20:48:33.000Z,280.59
2024-01-30T20:50:00.000Z,280.59
2024-01-30T20:52:06.000Z,280.52
2024-01-30T20:53:32.000Z,280.46
2024-01-30T20:55:38.000Z,280.46
2024-01-30T20:57:05.000Z,280.46
2024-01-30T20:59:12.000Z,280.46
2024-01-30T21:00:39.000Z,280.46
2024-01-30T21:02:45.000Z,280.46
2024-01-30T21:04:11.000Z,280.46
2024-01-30T21:06:18.000Z,280.46
2024-01-30T21:09:04.000Z,280.4
2024-01-30T21:10:30.000Z,280.46
2024-01-30T21:12:36.000Z,280.4
2024-01-30T21:14:03.000Z,280.4
2024-01-30T21:16:09.000Z,280.4
2024-01-30T21:17:36.000Z,280.4
2024-01-30T21:19:42.000Z,280.4
2024-01-30T21:21:08.000Z,280.4
2024-01-30T21:23:15.000Z,280.4
2024-01-30T21:24:41.000Z,280.34
2024-01-30T21:26:47.000Z,280.34
2024-01-30T21:28:14.000Z,280.4
2024-01-30T21:30:20.000Z,280.34
2024-01-30T21:31:46.000Z,280.4
2024-01-30T21:33:53.000Z,280.4
2024-01-30T21:35:20.000Z,280.34
2024-01-30T21:37:26.000Z,280.4
2024-01-30T21:38:52.000Z,280.4
2024-01-30T21:40:58.000Z,280.34
2024-01-30T21:42:25.000Z,280.34
2024-01-30T21:44:31.000Z,280.27
2024-01-30T21:47:17.000Z,280.27
2024-01-30T21:48:43.000Z,280.34
2024-01-30T21:50:50.000Z,280.34
2024-01-30T21:52:16.000Z,280.34
2024-01-30T21:54:23.000Z,280.4
2024-01-30T21:55:49.000Z,280.46
2024-01-30T21:57:56.000Z,280.46
2024-01-30T21:59:22.000Z,280.46
2024-01-30T22:01:28.000Z,280.52
2024-01-30T22:02:55.000Z,280.46
2024-01-30T22:05:01.000Z,280.46
2024-01-30T22:06:28.000Z,280.52
2024-01-30T22:08:34.000Z,280.52
2024-01-30T22:10:01.000Z,280.52
2024-01-30T22:12:07.000Z,280.52
2024-01-30T22:13:33.000Z,280.46
2024-01-30T22:15:40.000Z,280.46
2024-01-30T22:17:07.000Z,280.4
2024-01-30T22:19:13.000Z,280.4
2024-01-30T22:20:39.000Z,280.4
2024-01-30T22:22:46.000Z,280.34
2024-01-30T22:25:31.000Z,280.27
2024-01-30T22:26:57.000Z,280.27
2024-01-30T22:29:04.000Z,280.21
2024-01-30T22:30:30.000Z,280.21
2024-01-30T22:32:37.000Z,280.21
2024-01-30T22:34:03.000Z,280.21
2024-01-30T22:36:10.000Z,280.15
2024-01-30T22:37:36.000Z,280.15
2024-01-30T22:39:43.000Z,280.15
2024-01-30T22:41:09.000Z,280.15
2024-01-30T22:43:16.000Z,280.15